sensor_id;sensor_type;location;lat;lon;timestamp;temperature;humidity
12446;DHT22;6287;50.984;7.022;2022-10-18T00:00:05;16.20;99.90
12446;DHT22;6287;50.984;7.022;2022-10-18T00:02:38;16.20;99.90
12446;DHT22;6287;50.984;7.022;2022-10-18T00:05:04;16.20;99.90
12446;DHT22;6287;50.984;7.022;2022-10-18T00:07:30;16.20;99.90
12446;DHT22;6287;50.984;7.022;2022-10-18T00:09:55;16.20;99.90
12446;DHT22;6287;50.984;7.022;2022-10-18T00:12:21;16.20;99.90
12446;DHT22;6287;50.984;7.022;2022-10-18T00:14:49;16.20;99.90
12446;DHT22;6287;50.984;7.022;2022-10-18T00:17:18;16.20;99.90
12446;DHT22;6287;50.984;7.022;2022-10-18T00:19:44;16.20;99.90
12446;DHT22;6287;50.984;7.022;2022-10-18T00:22:13;16.20;99.90
12446;DHT22;6287;50.984;7.022;2022-10-18T00:24:41;16.20;99.90
12446;DHT22;6287;50.984;7.022;2022-10-18T00:27:06;16.10;99.90
12446;DHT22;6287;50.984;7.022;2022-10-18T00:29:34;16.10;99.90
12446;DHT22;6287;50.984;7.022;2022-10-18T00:31:59;16.20;99.90
12446;DHT22;6287;50.984;7.022;2022-10-18T00:34:27;16.10;99.90
12446;DHT22;6287;50.984;7.022;2022-10-18T00:36:55;16.00;99.90
12446;DHT22;6287;50.984;7.022;2022-10-18T00:39:25;16.00;99.90
12446;DHT22;6287;50.984;7.022;2022-10-18T00:41:51;16.10;99.90
12446;DHT22;6287;50.984;7.022;2022-10-18T00:46:52;16.10;99.90
12446;DHT22;6287;50.984;7.022;2022-10-18T00:49:21;16.10;99.90
12446;DHT22;6287;50.984;7.022;2022-10-18T00:54:25;16.10;99.90
12446;DHT22;6287;50.984;7.022;2022-10-18T00:56:52;16.10;99.90
12446;DHT22;6287;50.984;7.022;2022-10-18T00:59:19;16.00;99.90
12446;DHT22;6287;50.984;7.022;2022-10-18T01:01:47;16.00;99.90
12446;DHT22;6287;50.984;7.022;2022-10-18T01:04:14;16.10;99.90
12446;DHT22;6287;50.984;7.022;2022-10-18T01:06:54;16.10;99.90
12446;DHT22;6287;50.984;7.022;2022-10-18T01:12:31;16.10;99.90
12446;DHT22;6287;50.984;7.022;2022-10-18T01:31:36;16.10;99.90
12446;DHT22;6287;50.984;7.022;2022-10-18T01:34:06;16.10;99.90
12446;DHT22;6287;50.984;7.022;2022-10-18T01:36:43;16.10;99.90
12446;DHT22;6287;50.984;7.022;2022-10-18T01:39:14;16.10;99.90
12446;DHT22;6287;50.984;7.022;2022-10-18T01:41:42;16.10;99.90
12446;DHT22;6287;50.984;7.022;2022-10-18T01:44:19;16.10;99.90
12446;DHT22;6287;50.984;7.022;2022-10-18T01:46:46;16.10;99.90
12446;DHT22;6287;50.984;7.022;2022-10-18T01:49:14;16.10;99.90
12446;DHT22;6287;50.984;7.022;2022-10-18T01:51:39;16.10;99.90
12446;DHT22;6287;50.984;7.022;2022-10-18T01:54:07;16.10;99.90
12446;DHT22;6287;50.984;7.022;2022-10-18T02:01:50;16.10;99.90
12446;DHT22;6287;50.984;7.022;2022-10-18T02:07:59;16.20;99.90
12446;DHT22;6287;50.984;7.022;2022-10-18T02:10:37;16.20;99.90
12446;DHT22;6287;50.984;7.022;2022-10-18T02:13:04;16.10;99.90
12446;DHT22;6287;50.984;7.022;2022-10-18T02:15:34;16.20;99.90
12446;DHT22;6287;50.984;7.022;2022-10-18T02:18:05;16.20;99.90
12446;DHT22;6287;50.984;7.022;2022-10-18T02:20:35;16.20;99.90
12446;DHT22;6287;50.984;7.022;2022-10-18T02:23:04;16.20;99.90
12446;DHT22;6287;50.984;7.022;2022-10-18T02:25:33;16.20;99.90
12446;DHT22;6287;50.984;7.022;2022-10-18T02:27:59;16.20;99.90
12446;DHT22;6287;50.984;7.022;2022-10-18T02:30:58;16.20;99.90
12446;DHT22;6287;50.984;7.022;2022-10-18T02:33:53;16.20;99.90
12446;DHT22;6287;50.984;7.022;2022-10-18T02:36:25;16.20;99.90
12446;DHT22;6287;50.984;7.022;2022-10-18T02:39:00;16.20;99.90
12446;DHT22;6287;50.984;7.022;2022-10-18T02:41:29;16.20;99.90
12446;DHT22;6287;50.984;7.022;2022-10-18T02:44:01;16.10;99.90
12446;DHT22;6287;50.984;7.022;2022-10-18T02:46:29;16.10;99.90
12446;DHT22;6287;50.984;7.022;2022-10-18T02:48:57;16.20;99.90
12446;DHT22;6287;50.984;7.022;2022-10-18T02:51:22;16.10;99.90
12446;DHT22;6287;50.984;7.022;2022-10-18T02:53:50;16.20;99.90
12446;DHT22;6287;50.984;7.022;2022-10-18T02:56:16;16.10;99.90
12446;DHT22;6287;50.984;7.022;2022-10-18T02:58:42;16.20;99.90
12446;DHT22;6287;50.984;7.022;2022-10-18T03:01:09;16.10;99.90
12446;DHT22;6287;50.984;7.022;2022-10-18T03:03:35;16.20;99.90
12446;DHT22;6287;50.984;7.022;2022-10-18T03:06:00;16.10;99.90
12446;DHT22;6287;50.984;7.022;2022-10-18T03:08:28;16.10;99.90
12446;DHT22;6287;50.984;7.022;2022-10-18T03:10:56;16.10;99.90
12446;DHT22;6287;50.984;7.022;2022-10-18T03:13:27;16.10;99.90
12446;DHT22;6287;50.984;7.022;2022-10-18T03:15:52;16.10;99.90
12446;DHT22;6287;50.984;7.022;2022-10-18T03:18:18;16.10;99.90
12446;DHT22;6287;50.984;7.022;2022-10-18T03:20:46;16.00;99.90
12446;DHT22;6287;50.984;7.022;2022-10-18T03:23:14;16.00;99.90
12446;DHT22;6287;50.984;7.022;2022-10-18T03:25:39;16.00;99.90
12446;DHT22;6287;50.984;7.022;2022-10-18T03:28:07;16.00;99.90
12446;DHT22;6287;50.984;7.022;2022-10-18T03:30:35;16.00;99.90
12446;DHT22;6287;50.984;7.022;2022-10-18T03:33:05;16.00;99.90
12446;DHT22;6287;50.984;7.022;2022-10-18T03:35:31;16.00;99.90
12446;DHT22;6287;50.984;7.022;2022-10-18T03:37:59;16.00;99.90
12446;DHT22;6287;50.984;7.022;2022-10-18T03:40:29;16.00;99.90
12446;DHT22;6287;50.984;7.022;2022-10-18T03:42:59;16.00;99.90
12446;DHT22;6287;50.984;7.022;2022-10-18T03:45:27;16.00;99.90
12446;DHT22;6287;50.984;7.022;2022-10-18T03:47:53;16.00;99.90
12446;DHT22;6287;50.984;7.022;2022-10-18T03:50:21;15.90;99.90
12446;DHT22;6287;50.984;7.022;2022-10-18T03:52:46;16.00;99.90
12446;DHT22;6287;50.984;7.022;2022-10-18T03:55:12;16.00;99.90
12446;DHT22;6287;50.984;7.022;2022-10-18T03:57:38;16.00;99.90
12446;DHT22;6287;50.984;7.022;2022-10-18T04:00:03;16.00;99.90
12446;DHT22;6287;50.984;7.022;2022-10-18T04:02:29;16.00;99.90
12446;DHT22;6287;50.984;7.022;2022-10-18T04:04:59;15.90;99.90
12446;DHT22;6287;50.984;7.022;2022-10-18T04:07:25;16.00;99.90
12446;DHT22;6287;50.984;7.022;2022-10-18T04:09:53;16.00;99.90
12446;DHT22;6287;50.984;7.022;2022-10-18T04:12:20;16.00;99.90
12446;DHT22;6287;50.984;7.022;2022-10-18T04:14:46;16.00;99.90
12446;DHT22;6287;50.984;7.022;2022-10-18T04:17:12;15.90;99.90
12446;DHT22;6287;50.984;7.022;2022-10-18T04:19:37;15.90;99.90
12446;DHT22;6287;50.984;7.022;2022-10-18T04:22:03;15.90;99.90
12446;DHT22;6287;50.984;7.022;2022-10-18T04:24:28;15.90;99.90
12446;DHT22;6287;50.984;7.022;2022-10-18T04:26:58;15.90;99.90
12446;DHT22;6287;50.984;7.022;2022-10-18T04:29:24;15.90;99.90
12446;DHT22;6287;50.984;7.022;2022-10-18T04:31:52;15.90;99.90
12446;DHT22;6287;50.984;7.022;2022-10-18T04:34:20;16.00;99.90
12446;DHT22;6287;50.984;7.022;2022-10-18T04:36:45;15.90;99.90
12446;DHT22;6287;50.984;7.022;2022-10-18T04:39:11;15.90;99.90
12446;DHT22;6287;50.984;7.022;2022-10-18T04:41:38;15.90;99.90
12446;DHT22;6287;50.984;7.022;2022-10-18T04:44:04;15.90;99.90
12446;DHT22;6287;50.984;7.022;2022-10-18T04:46:30;16.00;99.90
12446;DHT22;6287;50.984;7.022;2022-10-18T04:49:00;16.00;99.90
12446;DHT22;6287;50.984;7.022;2022-10-18T04:51:27;16.00;99.90
12446;DHT22;6287;50.984;7.022;2022-10-18T04:53:55;16.00;99.90
12446;DHT22;6287;50.984;7.022;2022-10-18T04:56:23;16.00;99.90
12446;DHT22;6287;50.984;7.022;2022-10-18T04:58:51;16.00;99.90
12446;DHT22;6287;50.984;7.022;2022-10-18T05:01:19;16.00;99.90
12446;DHT22;6287;50.984;7.022;2022-10-18T05:03:51;16.00;99.90
12446;DHT22;6287;50.984;7.022;2022-10-18T05:06:20;16.00;99.90
12446;DHT22;6287;50.984;7.022;2022-10-18T05:08:45;16.00;99.90
12446;DHT22;6287;50.984;7.022;2022-10-18T05:11:11;16.00;99.90
12446;DHT22;6287;50.984;7.022;2022-10-18T05:13:41;16.00;99.90
12446;DHT22;6287;50.984;7.022;2022-10-18T05:16:08;16.00;99.90
12446;DHT22;6287;50.984;7.022;2022-10-18T05:18:36;16.00;99.90
12446;DHT22;6287;50.984;7.022;2022-10-18T05:21:02;16.00;99.90
12446;DHT22;6287;50.984;7.022;2022-10-18T05:23:28;16.00;99.90
12446;DHT22;6287;50.984;7.022;2022-10-18T05:26:00;16.10;99.90
12446;DHT22;6287;50.984;7.022;2022-10-18T05:28:31;16.10;99.90
12446;DHT22;6287;50.984;7.022;2022-10-18T05:31:05;16.10;99.90
12446;DHT22;6287;50.984;7.022;2022-10-18T05:33:34;16.10;99.90
12446;DHT22;6287;50.984;7.022;2022-10-18T05:36:02;16.10;99.90
12446;DHT22;6287;50.984;7.022;2022-10-18T05:38:30;16.10;99.90
12446;DHT22;6287;50.984;7.022;2022-10-18T05:41:02;16.10;99.90
12446;DHT22;6287;50.984;7.022;2022-10-18T05:43:28;16.10;99.90
12446;DHT22;6287;50.984;7.022;2022-10-18T05:45:56;16.10;99.90
12446;DHT22;6287;50.984;7.022;2022-10-18T05:48:22;16.10;99.90
12446;DHT22;6287;50.984;7.022;2022-10-18T05:50:52;16.10;99.90
12446;DHT22;6287;50.984;7.022;2022-10-18T05:53:18;16.10;99.90
12446;DHT22;6287;50.984;7.022;2022-10-18T05:55:44;16.10;99.90
12446;DHT22;6287;50.984;7.022;2022-10-18T05:58:09;16.10;99.90
12446;DHT22;6287;50.984;7.022;2022-10-18T06:00:35;16.10;99.90
12446;DHT22;6287;50.984;7.022;2022-10-18T06:03:00;16.20;99.90
12446;DHT22;6287;50.984;7.022;2022-10-18T06:05:31;16.10;99.90
12446;DHT22;6287;50.984;7.022;2022-10-18T06:07:58;16.20;99.90
12446;DHT22;6287;50.984;7.022;2022-10-18T06:10:27;16.10;99.90
12446;DHT22;6287;50.984;7.022;2022-10-18T06:12:52;16.20;99.90
12446;DHT22;6287;50.984;7.022;2022-10-18T06:15:20;16.10;99.90
12446;DHT22;6287;50.984;7.022;2022-10-18T06:17:45;16.10;99.90
12446;DHT22;6287;50.984;7.022;2022-10-18T06:20:11;16.10;99.90
12446;DHT22;6287;50.984;7.022;2022-10-18T06:22:36;16.20;99.90
12446;DHT22;6287;50.984;7.022;2022-10-18T06:25:04;16.10;99.90
12446;DHT22;6287;50.984;7.022;2022-10-18T06:27:33;16.20;99.90
12446;DHT22;6287;50.984;7.022;2022-10-18T06:30:01;16.20;99.90
12446;DHT22;6287;50.984;7.022;2022-10-18T06:32:27;16.20;99.90
12446;DHT22;6287;50.984;7.022;2022-10-18T06:34:57;16.20;99.90
12446;DHT22;6287;50.984;7.022;2022-10-18T06:37:26;16.20;99.90
12446;DHT22;6287;50.984;7.022;2022-10-18T06:39:53;16.20;99.90
12446;DHT22;6287;50.984;7.022;2022-10-18T06:42:25;16.20;99.90
12446;DHT22;6287;50.984;7.022;2022-10-18T06:44:58;16.20;99.90
12446;DHT22;6287;50.984;7.022;2022-10-18T06:47:24;16.20;99.90
12446;DHT22;6287;50.984;7.022;2022-10-18T06:49:50;16.20;99.90
12446;DHT22;6287;50.984;7.022;2022-10-18T06:52:16;16.20;99.90
12446;DHT22;6287;50.984;7.022;2022-10-18T06:54:45;16.30;99.90
12446;DHT22;6287;50.984;7.022;2022-10-18T06:57:15;16.30;99.90
12446;DHT22;6287;50.984;7.022;2022-10-18T06:59:40;16.30;99.90
12446;DHT22;6287;50.984;7.022;2022-10-18T07:02:06;16.30;99.90
12446;DHT22;6287;50.984;7.022;2022-10-18T07:04:31;16.30;99.90
12446;DHT22;6287;50.984;7.022;2022-10-18T07:06:57;16.30;99.90
12446;DHT22;6287;50.984;7.022;2022-10-18T07:09:25;16.40;99.90
12446;DHT22;6287;50.984;7.022;2022-10-18T07:11:55;16.40;99.90
12446;DHT22;6287;50.984;7.022;2022-10-18T07:14:23;16.40;99.90
12446;DHT22;6287;50.984;7.022;2022-10-18T07:16:53;16.50;99.90
12446;DHT22;6287;50.984;7.022;2022-10-18T07:19:19;16.50;99.90
12446;DHT22;6287;50.984;7.022;2022-10-18T07:21:44;16.50;99.90
12446;DHT22;6287;50.984;7.022;2022-10-18T07:24:15;16.50;99.90
12446;DHT22;6287;50.984;7.022;2022-10-18T07:26:41;16.60;99.90
12446;DHT22;6287;50.984;7.022;2022-10-18T07:29:10;16.60;99.90
12446;DHT22;6287;50.984;7.022;2022-10-18T07:31:37;16.60;99.90
12446;DHT22;6287;50.984;7.022;2022-10-18T07:34:04;16.60;99.90
12446;DHT22;6287;50.984;7.022;2022-10-18T07:36:30;16.60;99.90
12446;DHT22;6287;50.984;7.022;2022-10-18T07:38:58;16.60;99.90
12446;DHT22;6287;50.984;7.022;2022-10-18T07:41:26;16.60;99.90
12446;DHT22;6287;50.984;7.022;2022-10-18T07:43:53;16.60;99.90
12446;DHT22;6287;50.984;7.022;2022-10-18T07:46:21;16.60;99.90
12446;DHT22;6287;50.984;7.022;2022-10-18T07:48:49;16.60;99.90
12446;DHT22;6287;50.984;7.022;2022-10-18T07:51:16;16.60;99.90
12446;DHT22;6287;50.984;7.022;2022-10-18T07:53:42;16.70;99.90
12446;DHT22;6287;50.984;7.022;2022-10-18T07:56:13;16.70;99.90
12446;DHT22;6287;50.984;7.022;2022-10-18T07:58:47;16.70;99.90
12446;DHT22;6287;50.984;7.022;2022-10-18T08:01:13;16.80;99.90
12446;DHT22;6287;50.984;7.022;2022-10-18T08:03:41;16.80;99.90
12446;DHT22;6287;50.984;7.022;2022-10-18T08:06:08;16.80;99.90
12446;DHT22;6287;50.984;7.022;2022-10-18T08:08:36;16.90;99.90
12446;DHT22;6287;50.984;7.022;2022-10-18T08:11:04;16.90;99.90
12446;DHT22;6287;50.984;7.022;2022-10-18T08:13:30;16.90;99.90
12446;DHT22;6287;50.984;7.022;2022-10-18T08:16:02;16.90;99.90
12446;DHT22;6287;50.984;7.022;2022-10-18T08:18:29;16.90;99.90
12446;DHT22;6287;50.984;7.022;2022-10-18T08:20:57;16.90;99.90
12446;DHT22;6287;50.984;7.022;2022-10-18T08:23:25;16.90;99.90
12446;DHT22;6287;50.984;7.022;2022-10-18T08:25:51;16.90;99.90
12446;DHT22;6287;50.984;7.022;2022-10-18T08:28:21;16.90;99.90
12446;DHT22;6287;50.984;7.022;2022-10-18T08:30:47;17.00;99.90
12446;DHT22;6287;50.984;7.022;2022-10-18T08:33:12;17.00;99.90
12446;DHT22;6287;50.984;7.022;2022-10-18T08:35:38;17.00;99.90
12446;DHT22;6287;50.984;7.022;2022-10-18T08:38:06;17.10;99.90
12446;DHT22;6287;50.984;7.022;2022-10-18T08:40:41;17.10;99.90
12446;DHT22;6287;50.984;7.022;2022-10-18T08:43:55;17.20;99.90
12446;DHT22;6287;50.984;7.022;2022-10-18T08:46:00;17.30;99.90
12446;DHT22;6287;50.984;7.022;2022-10-18T08:48:36;17.30;99.90
12446;DHT22;6287;50.984;7.022;2022-10-18T08:51:16;17.40;99.90
12446;DHT22;6287;50.984;7.022;2022-10-18T08:53:54;17.40;99.90
12446;DHT22;6287;50.984;7.022;2022-10-18T08:56:21;17.40;99.90
12446;DHT22;6287;50.984;7.022;2022-10-18T08:58:48;17.40;99.90
12446;DHT22;6287;50.984;7.022;2022-10-18T09:15:07;17.40;99.90
12446;DHT22;6287;50.984;7.022;2022-10-18T09:22:54;17.50;99.90
12446;DHT22;6287;50.984;7.022;2022-10-18T09:25:24;17.50;99.90
12446;DHT22;6287;50.984;7.022;2022-10-18T09:27:54;17.50;99.90
12446;DHT22;6287;50.984;7.022;2022-10-18T09:30:32;17.50;99.90
12446;DHT22;6287;50.984;7.022;2022-10-18T09:33:19;17.40;99.90
12446;DHT22;6287;50.984;7.022;2022-10-18T09:35:53;17.40;99.90
12446;DHT22;6287;50.984;7.022;2022-10-18T09:38:23;17.30;99.90
12446;DHT22;6287;50.984;7.022;2022-10-18T09:40:55;17.40;99.90
12446;DHT22;6287;50.984;7.022;2022-10-18T09:43:29;17.30;99.90
12446;DHT22;6287;50.984;7.022;2022-10-18T09:45:58;17.30;99.90
12446;DHT22;6287;50.984;7.022;2022-10-18T09:48:55;17.30;99.90
12446;DHT22;6287;50.984;7.022;2022-10-18T09:51:25;17.40;99.90
12446;DHT22;6287;50.984;7.022;2022-10-18T09:56:29;17.40;99.90
12446;DHT22;6287;50.984;7.022;2022-10-18T09:58:59;17.50;99.90
12446;DHT22;6287;50.984;7.022;2022-10-18T10:01:31;17.60;99.90
12446;DHT22;6287;50.984;7.022;2022-10-18T10:03:59;17.60;99.90
12446;DHT22;6287;50.984;7.022;2022-10-18T10:06:32;17.70;99.90
12446;DHT22;6287;50.984;7.022;2022-10-18T10:09:13;17.70;99.90
12446;DHT22;6287;50.984;7.022;2022-10-18T10:11:50;17.60;99.90
12446;DHT22;6287;50.984;7.022;2022-10-18T10:14:25;17.60;99.90
12446;DHT22;6287;50.984;7.022;2022-10-18T10:17:00;17.80;99.90
12446;DHT22;6287;50.984;7.022;2022-10-18T10:19:33;17.70;99.90
12446;DHT22;6287;50.984;7.022;2022-10-18T10:22:04;17.80;99.90
12446;DHT22;6287;50.984;7.022;2022-10-18T10:24:49;17.80;99.90
12446;DHT22;6287;50.984;7.022;2022-10-18T10:27:42;17.80;99.90
12446;DHT22;6287;50.984;7.022;2022-10-18T10:30:27;17.90;99.90
12446;DHT22;6287;50.984;7.022;2022-10-18T10:32:57;17.90;99.90
12446;DHT22;6287;50.984;7.022;2022-10-18T10:35:33;17.90;99.90
12446;DHT22;6287;50.984;7.022;2022-10-18T10:38:01;17.90;99.90
12446;DHT22;6287;50.984;7.022;2022-10-18T10:40:34;17.90;99.90
12446;DHT22;6287;50.984;7.022;2022-10-18T10:43:15;18.00;99.90
12446;DHT22;6287;50.984;7.022;2022-10-18T10:46:14;18.10;99.90
12446;DHT22;6287;50.984;7.022;2022-10-18T10:48:54;18.20;99.90
12446;DHT22;6287;50.984;7.022;2022-10-18T10:51:32;18.30;99.90
12446;DHT22;6287;50.984;7.022;2022-10-18T10:56:27;18.30;99.90
12446;DHT22;6287;50.984;7.022;2022-10-18T10:59:06;18.40;99.90
12446;DHT22;6287;50.984;7.022;2022-10-18T11:01:37;18.50;99.90
12446;DHT22;6287;50.984;7.022;2022-10-18T11:04:24;18.60;99.90
12446;DHT22;6287;50.984;7.022;2022-10-18T11:12:35;19.00;99.90
12446;DHT22;6287;50.984;7.022;2022-10-18T11:17:45;19.20;99.90
12446;DHT22;6287;50.984;7.022;2022-10-18T11:20:25;19.30;99.90
12446;DHT22;6287;50.984;7.022;2022-10-18T11:22:59;19.40;99.90
12446;DHT22;6287;50.984;7.022;2022-10-18T11:39:44;19.60;99.90
12446;DHT22;6287;50.984;7.022;2022-10-18T11:53:11;19.30;99.90
12446;DHT22;6287;50.984;7.022;2022-10-18T12:04:14;20.60;99.90
12446;DHT22;6287;50.984;7.022;2022-10-18T12:06:45;21.00;99.90
12446;DHT22;6287;50.984;7.022;2022-10-18T12:09:25;21.30;99.90
12446;DHT22;6287;50.984;7.022;2022-10-18T12:11:56;21.70;99.90
12446;DHT22;6287;50.984;7.022;2022-10-18T12:14:28;22.10;99.90
12446;DHT22;6287;50.984;7.022;2022-10-18T12:16:57;22.30;99.90
12446;DHT22;6287;50.984;7.022;2022-10-18T12:19:28;22.20;99.90
12446;DHT22;6287;50.984;7.022;2022-10-18T12:22:07;22.00;99.90
12446;DHT22;6287;50.984;7.022;2022-10-18T12:24:37;21.80;99.90
12446;DHT22;6287;50.984;7.022;2022-10-18T12:27:07;21.70;99.90
12446;DHT22;6287;50.984;7.022;2022-10-18T12:29:49;21.80;99.90
12446;DHT22;6287;50.984;7.022;2022-10-18T12:32:21;21.90;99.90
12446;DHT22;6287;50.984;7.022;2022-10-18T12:34:52;22.00;99.90
12446;DHT22;6287;50.984;7.022;2022-10-18T12:37:34;22.20;99.90
12446;DHT22;6287;50.984;7.022;2022-10-18T12:42:46;22.20;99.90
12446;DHT22;6287;50.984;7.022;2022-10-18T12:47:39;22.50;99.90
12446;DHT22;6287;50.984;7.022;2022-10-18T12:55:39;22.20;99.90
12446;DHT22;6287;50.984;7.022;2022-10-18T12:58:21;21.90;99.90
12446;DHT22;6287;50.984;7.022;2022-10-18T13:11:28;21.10;99.90
12446;DHT22;6287;50.984;7.022;2022-10-18T13:20:06;21.30;99.90
12446;DHT22;6287;50.984;7.022;2022-10-18T13:34:04;22.30;99.90
12446;DHT22;6287;50.984;7.022;2022-10-18T13:36:41;21.80;99.90
12446;DHT22;6287;50.984;7.022;2022-10-18T13:39:18;21.10;99.90
12446;DHT22;6287;50.984;7.022;2022-10-18T13:42:27;21.00;99.90
12446;DHT22;6287;50.984;7.022;2022-10-18T13:44:50;20.70;99.90
12446;DHT22;6287;50.984;7.022;2022-10-18T13:47:35;20.30;99.90
12446;DHT22;6287;50.984;7.022;2022-10-18T13:50:15;20.00;99.90
12446;DHT22;6287;50.984;7.022;2022-10-18T13:52:53;19.70;99.90
12446;DHT22;6287;50.984;7.022;2022-10-18T13:58:57;19.30;99.90
12446;DHT22;6287;50.984;7.022;2022-10-18T14:06:44;18.90;99.90
12446;DHT22;6287;50.984;7.022;2022-10-18T14:11:49;18.80;99.90
12446;DHT22;6287;50.984;7.022;2022-10-18T14:19:57;18.90;99.90
12446;DHT22;6287;50.984;7.022;2022-10-18T14:24:58;19.20;99.90
12446;DHT22;6287;50.984;7.022;2022-10-18T14:27:29;19.20;99.90
12446;DHT22;6287;50.984;7.022;2022-10-18T14:30:19;19.10;99.90
12446;DHT22;6287;50.984;7.022;2022-10-18T14:32:49;19.10;99.90
12446;DHT22;6287;50.984;7.022;2022-10-18T14:35:33;19.00;99.90
12446;DHT22;6287;50.984;7.022;2022-10-18T14:38:01;18.90;99.90
12446;DHT22;6287;50.984;7.022;2022-10-18T14:40:34;19.30;99.90
12446;DHT22;6287;50.984;7.022;2022-10-18T14:43:09;19.30;99.90
12446;DHT22;6287;50.984;7.022;2022-10-18T14:45:35;19.50;99.90
12446;DHT22;6287;50.984;7.022;2022-10-18T14:48:19;19.60;99.90
12446;DHT22;6287;50.984;7.022;2022-10-18T14:50:55;19.50;99.90
12446;DHT22;6287;50.984;7.022;2022-10-18T14:53:24;19.40;99.90
12446;DHT22;6287;50.984;7.022;2022-10-18T14:55:57;19.20;99.90
12446;DHT22;6287;50.984;7.022;2022-10-18T14:58:27;19.00;99.90
12446;DHT22;6287;50.984;7.022;2022-10-18T15:00:53;19.00;99.90
12446;DHT22;6287;50.984;7.022;2022-10-18T15:03:19;19.00;99.90
12446;DHT22;6287;50.984;7.022;2022-10-18T15:06:00;19.00;99.90
12446;DHT22;6287;50.984;7.022;2022-10-18T15:08:33;19.00;99.90
12446;DHT22;6287;50.984;7.022;2022-10-18T15:11:02;19.00;99.90
12446;DHT22;6287;50.984;7.022;2022-10-18T15:13:29;18.80;99.90
12446;DHT22;6287;50.984;7.022;2022-10-18T15:15:58;18.60;99.90
12446;DHT22;6287;50.984;7.022;2022-10-18T15:18:25;18.50;99.90
12446;DHT22;6287;50.984;7.022;2022-10-18T15:21:26;18.30;99.90
12446;DHT22;6287;50.984;7.022;2022-10-18T15:24:27;18.20;99.90
12446;DHT22;6287;50.984;7.022;2022-10-18T15:26:59;18.00;99.90
12446;DHT22;6287;50.984;7.022;2022-10-18T15:29:29;17.80;99.90
12446;DHT22;6287;50.984;7.022;2022-10-18T15:32:10;17.80;99.90
12446;DHT22;6287;50.984;7.022;2022-10-18T15:34:39;17.70;99.90
12446;DHT22;6287;50.984;7.022;2022-10-18T15:42:52;17.40;99.90
12446;DHT22;6287;50.984;7.022;2022-10-18T15:50:48;17.10;99.90
12446;DHT22;6287;50.984;7.022;2022-10-18T16:01:22;16.90;99.90
12446;DHT22;6287;50.984;7.022;2022-10-18T16:03:49;16.80;99.90
12446;DHT22;6287;50.984;7.022;2022-10-18T16:06:18;16.70;99.90
12446;DHT22;6287;50.984;7.022;2022-10-18T16:08:47;16.50;99.90
12446;DHT22;6287;50.984;7.022;2022-10-18T16:11:23;16.50;99.90
12446;DHT22;6287;50.984;7.022;2022-10-18T16:13:52;16.40;99.90
12446;DHT22;6287;50.984;7.022;2022-10-18T16:16:24;16.30;99.90
12446;DHT22;6287;50.984;7.022;2022-10-18T16:18:51;16.30;99.90
12446;DHT22;6287;50.984;7.022;2022-10-18T16:21:23;16.10;99.90
12446;DHT22;6287;50.984;7.022;2022-10-18T16:23:52;16.20;99.90
12446;DHT22;6287;50.984;7.022;2022-10-18T16:26:18;16.00;99.90
12446;DHT22;6287;50.984;7.022;2022-10-18T16:28:45;16.00;99.90
12446;DHT22;6287;50.984;7.022;2022-10-18T16:31:19;15.90;99.90
12446;DHT22;6287;50.984;7.022;2022-10-18T16:33:46;15.80;99.90
12446;DHT22;6287;50.984;7.022;2022-10-18T16:36:14;15.80;99.90
12446;DHT22;6287;50.984;7.022;2022-10-18T16:38:41;15.70;99.90
12446;DHT22;6287;50.984;7.022;2022-10-18T16:41:07;15.60;99.90
12446;DHT22;6287;50.984;7.022;2022-10-18T16:43:34;15.60;99.90
12446;DHT22;6287;50.984;7.022;2022-10-18T16:46:03;15.50;99.90
12446;DHT22;6287;50.984;7.022;2022-10-18T16:48:33;15.40;99.90
12446;DHT22;6287;50.984;7.022;2022-10-18T16:50:59;15.40;99.90
12446;DHT22;6287;50.984;7.022;2022-10-18T16:53:27;15.40;99.90
12446;DHT22;6287;50.984;7.022;2022-10-18T16:55:58;15.30;99.90
12446;DHT22;6287;50.984;7.022;2022-10-18T16:58:28;15.20;99.90
12446;DHT22;6287;50.984;7.022;2022-10-18T17:00:57;15.10;99.90
12446;DHT22;6287;50.984;7.022;2022-10-18T17:03:24;15.00;99.90
12446;DHT22;6287;50.984;7.022;2022-10-18T17:05:52;15.00;99.90
12446;DHT22;6287;50.984;7.022;2022-10-18T17:08:24;15.00;99.90
12446;DHT22;6287;50.984;7.022;2022-10-18T17:10:51;14.80;99.90
12446;DHT22;6287;50.984;7.022;2022-10-18T17:13:24;14.70;99.90
12446;DHT22;6287;50.984;7.022;2022-10-18T17:15:52;14.70;99.90
12446;DHT22;6287;50.984;7.022;2022-10-18T17:18:21;14.60;99.90
12446;DHT22;6287;50.984;7.022;2022-10-18T17:20:47;14.60;99.90
12446;DHT22;6287;50.984;7.022;2022-10-18T17:23:13;14.50;99.90
12446;DHT22;6287;50.984;7.022;2022-10-18T17:25:40;14.40;99.90
12446;DHT22;6287;50.984;7.022;2022-10-18T17:28:11;14.40;99.90
12446;DHT22;6287;50.984;7.022;2022-10-18T17:30:43;14.30;99.90
12446;DHT22;6287;50.984;7.022;2022-10-18T17:33:09;14.20;99.90
12446;DHT22;6287;50.984;7.022;2022-10-18T17:35:40;14.20;99.90
12446;DHT22;6287;50.984;7.022;2022-10-18T17:38:10;14.10;99.90
12446;DHT22;6287;50.984;7.022;2022-10-18T17:40:41;14.10;99.90
12446;DHT22;6287;50.984;7.022;2022-10-18T17:43:10;14.00;99.90
12446;DHT22;6287;50.984;7.022;2022-10-18T17:45:54;13.90;99.90
12446;DHT22;6287;50.984;7.022;2022-10-18T17:48:20;13.90;99.90
12446;DHT22;6287;50.984;7.022;2022-10-18T17:50:48;13.80;99.90
12446;DHT22;6287;50.984;7.022;2022-10-18T17:53:16;13.70;99.90
12446;DHT22;6287;50.984;7.022;2022-10-18T17:55:51;13.60;99.90
12446;DHT22;6287;50.984;7.022;2022-10-18T17:58:21;13.60;99.90
12446;DHT22;6287;50.984;7.022;2022-10-18T18:00:46;13.60;99.90
12446;DHT22;6287;50.984;7.022;2022-10-18T18:03:12;13.50;99.90
12446;DHT22;6287;50.984;7.022;2022-10-18T18:05:40;13.40;99.90
12446;DHT22;6287;50.984;7.022;2022-10-18T18:08:05;13.40;99.90
12446;DHT22;6287;50.984;7.022;2022-10-18T18:10:32;13.30;99.90
12446;DHT22;6287;50.984;7.022;2022-10-18T18:12:58;13.30;99.90
12446;DHT22;6287;50.984;7.022;2022-10-18T18:15:23;13.30;99.90
12446;DHT22;6287;50.984;7.022;2022-10-18T18:17:49;13.20;99.90
12446;DHT22;6287;50.984;7.022;2022-10-18T18:22:40;13.10;99.90
12446;DHT22;6287;50.984;7.022;2022-10-18T18:25:06;13.10;99.90
12446;DHT22;6287;50.984;7.022;2022-10-18T18:27:37;13.00;99.90
12446;DHT22;6287;50.984;7.022;2022-10-18T18:30:04;13.00;99.90
12446;DHT22;6287;50.984;7.022;2022-10-18T18:32:33;12.90;99.90
12446;DHT22;6287;50.984;7.022;2022-10-18T18:37:24;12.80;99.90
12446;DHT22;6287;50.984;7.022;2022-10-18T18:39:50;12.80;99.90
12446;DHT22;6287;50.984;7.022;2022-10-18T18:42:18;12.70;99.90
12446;DHT22;6287;50.984;7.022;2022-10-18T18:44:43;12.70;99.90
12446;DHT22;6287;50.984;7.022;2022-10-18T18:47:12;12.60;99.90
12446;DHT22;6287;50.984;7.022;2022-10-18T18:49:40;12.60;99.90
12446;DHT22;6287;50.984;7.022;2022-10-18T18:52:06;12.60;99.90
12446;DHT22;6287;50.984;7.022;2022-10-18T18:54:34;12.60;99.90
12446;DHT22;6287;50.984;7.022;2022-10-18T18:56:59;12.60;99.90
12446;DHT22;6287;50.984;7.022;2022-10-18T18:59:31;12.50;99.90
12446;DHT22;6287;50.984;7.022;2022-10-18T19:01:57;12.50;99.90
12446;DHT22;6287;50.984;7.022;2022-10-18T19:04:27;12.40;99.90